sensor_id;sensor_type;location;lat;lon;timestamp;pressure;altitude;pressure_sealevel;temperature;humidity
64388;BME280;50709;52.648;4.764;2022-12-29T00:01:27;99752.41;;;14.10;72.44
64388;BME280;50709;52.648;4.764;2022-12-29T00:03:52;99740.84;;;14.16;71.39
64388;BME280;50709;52.648;4.764;2022-12-29T00:06:18;99743.75;;;13.76;73.34
64388;BME280;50709;52.648;4.764;2022-12-29T00:08:45;99729.22;;;13.32;73.58
64388;BME280;50709;52.648;4.764;2022-12-29T00:11:21;99761.63;;;13.63;72.75
64388;BME280;50709;52.648;4.764;2022-12-29T00:13:46;99723.38;;;13.86;72.22
64388;BME280;50709;52.648;4.764;2022-12-29T00:16:31;99730.00;;;13.68;71.79
64388;BME280;50709;52.648;4.764;2022-12-29T00:18:56;99732.53;;;13.40;74.25
64388;BME280;50709;52.648;4.764;2022-12-29T00:21:22;99728.31;;;13.33;74.99
64388;BME280;50709;52.648;4.764;2022-12-29T00:24:09;99723.53;;;13.16;75.19
64388;BME280;50709;52.648;4.764;2022-12-29T00:26:57;99716.94;;;13.34;75.86
64388;BME280;50709;52.648;4.764;2022-12-29T00:29:41;99720.88;;;12.83;76.81
64388;BME280;50709;52.648;4.764;2022-12-29T00:32:25;99724.00;;;13.65;75.06
64388;BME280;50709;52.648;4.764;2022-12-29T00:35:10;99725.84;;;13.26;75.70
64388;BME280;50709;52.648;4.764;2022-12-29T00:37:41;99715.53;;;13.85;73.92
64388;BME280;50709;52.648;4.764;2022-12-29T00:40:27;99713.22;;;13.74;75.46
64388;BME280;50709;52.648;4.764;2022-12-29T00:43:10;99706.00;;;13.18;76.68
64388;BME280;50709;52.648;4.764;2022-12-29T00:45:55;99698.09;;;13.19;76.54
64388;BME280;50709;52.648;4.764;2022-12-29T00:48:20;99710.56;;;14.05;73.91
64388;BME280;50709;52.648;4.764;2022-12-29T00:51:05;99711.34;;;13.48;77.52
64388;BME280;50709;52.648;4.764;2022-12-29T00:53:31;99698.59;;;13.65;77.12
64388;BME280;50709;52.648;4.764;2022-12-29T00:55:56;99700.97;;;13.74;76.26
64388;BME280;50709;52.648;4.764;2022-12-29T00:58:22;99686.34;;;13.01;77.63
64388;BME280;50709;52.648;4.764;2022-12-29T01:00:47;99675.94;;;12.98;78.45
64388;BME280;50709;52.648;4.764;2022-12-29T01:03:12;99675.81;;;13.03;78.28
64388;BME280;50709;52.648;4.764;2022-12-29T01:05:37;99682.84;;;13.01;78.09
64388;BME280;50709;52.648;4.764;2022-12-29T01:08:03;99687.22;;;13.33;79.15
64388;BME280;50709;52.648;4.764;2022-12-29T01:10:28;99664.63;;;13.90;77.02
64388;BME280;50709;52.648;4.764;2022-12-29T01:12:53;99654.59;;;14.03;73.74
64388;BME280;50709;52.648;4.764;2022-12-29T01:15:19;99660.75;;;14.57;72.81
64388;BME280;50709;52.648;4.764;2022-12-29T01:17:44;99678.19;;;14.87;72.32
64388;BME280;50709;52.648;4.764;2022-12-29T01:20:09;99670.06;;;13.84;74.30
64388;BME280;50709;52.648;4.764;2022-12-29T01:22:35;99668.38;;;13.82;76.68
64388;BME280;50709;52.648;4.764;2022-12-29T01:25:01;99687.41;;;14.73;73.57
64388;BME280;50709;52.648;4.764;2022-12-29T01:27:26;99667.88;;;14.27;72.92
64388;BME280;50709;52.648;4.764;2022-12-29T01:29:51;99676.91;;;14.45;72.33
64388;BME280;50709;52.648;4.764;2022-12-29T01:32:16;99666.78;;;14.06;72.96
64388;BME280;50709;52.648;4.764;2022-12-29T01:34:42;99673.31;;;14.21;73.29
64388;BME280;50709;52.648;4.764;2022-12-29T01:37:07;99665.53;;;14.18;72.76
64388;BME280;50709;52.648;4.764;2022-12-29T01:39:32;99668.00;;;14.22;74.01
64388;BME280;50709;52.648;4.764;2022-12-29T01:41:57;99652.94;;;14.01;73.85
64388;BME280;50709;52.648;4.764;2022-12-29T01:47:06;99670.00;;;13.24;77.63
64388;BME280;50709;52.648;4.764;2022-12-29T01:49:32;99658.63;;;13.57;75.12
64388;BME280;50709;52.648;4.764;2022-12-29T01:51:59;99657.59;;;12.98;77.06
64388;BME280;50709;52.648;4.764;2022-12-29T01:54:30;99667.34;;;12.93;78.86
64388;BME280;50709;52.648;4.764;2022-12-29T01:56:57;99662.81;;;12.98;78.71
64388;BME280;50709;52.648;4.764;2022-12-29T01:59:25;99656.66;;;11.92;78.10
64388;BME280;50709;52.648;4.764;2022-12-29T02:01:52;99658.06;;;13.12;77.38
64388;BME280;50709;52.648;4.764;2022-12-29T02:04:18;99661.09;;;12.64;76.39
64388;BME280;50709;52.648;4.764;2022-12-29T02:06:45;99666.84;;;12.78;76.58
64388;BME280;50709;52.648;4.764;2022-12-29T02:09:11;99662.13;;;12.93;75.26
64388;BME280;50709;52.648;4.764;2022-12-29T02:11:36;99662.91;;;12.62;77.65
64388;BME280;50709;52.648;4.764;2022-12-29T02:14:07;99654.31;;;12.90;74.93
64388;BME280;50709;52.648;4.764;2022-12-29T02:16:36;99664.50;;;13.34;75.26
64388;BME280;50709;52.648;4.764;2022-12-29T02:21:56;99659.91;;;13.10;74.03
64388;BME280;50709;52.648;4.764;2022-12-29T02:27:19;99638.84;;;13.13;76.08
64388;BME280;50709;52.648;4.764;2022-12-29T02:44:55;99611.38;;;12.62;75.16
64388;BME280;50709;52.648;4.764;2022-12-29T02:47:29;99642.84;;;12.61;74.43
64388;BME280;50709;52.648;4.764;2022-12-29T02:50:03;99639.31;;;12.95;76.27
64388;BME280;50709;52.648;4.764;2022-12-29T02:52:35;99638.53;;;12.93;72.48
64388;BME280;50709;52.648;4.764;2022-12-29T02:55:02;99631.25;;;13.34;73.03
64388;BME280;50709;52.648;4.764;2022-12-29T02:57:32;99639.19;;;13.01;73.83
64388;BME280;50709;52.648;4.764;2022-12-29T03:00:00;99631.34;;;13.31;71.40
64388;BME280;50709;52.648;4.764;2022-12-29T03:10:16;99654.09;;;12.65;73.11
64388;BME280;50709;52.648;4.764;2022-12-29T03:12:51;99644.34;;;12.35;73.69
64388;BME280;50709;52.648;4.764;2022-12-29T03:15:50;99630.72;;;12.57;72.32
64388;BME280;50709;52.648;4.764;2022-12-29T03:21:12;99635.22;;;13.18;73.40
64388;BME280;50709;52.648;4.764;2022-12-29T03:23:39;99640.91;;;12.33;71.17
64388;BME280;50709;52.648;4.764;2022-12-29T03:26:06;99640.94;;;12.68;73.00
64388;BME280;50709;52.648;4.764;2022-12-29T03:28:35;99643.78;;;12.93;72.73
64388;BME280;50709;52.648;4.764;2022-12-29T03:31:02;99640.97;;;12.99;73.94
64388;BME280;50709;52.648;4.764;2022-12-29T03:33:28;99659.91;;;13.10;72.43
64388;BME280;50709;52.648;4.764;2022-12-29T03:35:56;99647.00;;;13.34;71.92
64388;BME280;50709;52.648;4.764;2022-12-29T03:38:25;99650.97;;;12.50;72.77
64388;BME280;50709;52.648;4.764;2022-12-29T03:40:52;99636.03;;;11.78;73.59
64388;BME280;50709;52.648;4.764;2022-12-29T03:43:20;99648.25;;;12.53;73.62
64388;BME280;50709;52.648;4.764;2022-12-29T03:45:45;99655.78;;;13.00;75.04
64388;BME280;50709;52.648;4.764;2022-12-29T03:48:11;99645.81;;;13.13;73.71
64388;BME280;50709;52.648;4.764;2022-12-29T03:50:36;99658.38;;;13.02;75.09
64388;BME280;50709;52.648;4.764;2022-12-29T03:53:01;99653.53;;;12.16;72.21
64388;BME280;50709;52.648;4.764;2022-12-29T03:55:26;99658.50;;;12.62;74.40
64388;BME280;50709;52.648;4.764;2022-12-29T03:57:51;99658.59;;;12.59;74.46
64388;BME280;50709;52.648;4.764;2022-12-29T04:00:17;99654.25;;;12.22;72.54
64388;BME280;50709;52.648;4.764;2022-12-29T04:02:42;99639.31;;;12.62;73.61
64388;BME280;50709;52.648;4.764;2022-12-29T04:05:07;99650.59;;;12.64;73.35
64388;BME280;50709;52.648;4.764;2022-12-29T04:07:33;99627.53;;;12.44;73.31
64388;BME280;50709;52.648;4.764;2022-12-29T04:09:58;99645.56;;;12.91;73.05
64388;BME280;50709;52.648;4.764;2022-12-29T04:12:23;99632.06;;;13.38;72.74
64388;BME280;50709;52.648;4.764;2022-12-29T04:14:48;99631.56;;;12.57;70.79
64388;BME280;50709;52.648;4.764;2022-12-29T04:17:13;99622.69;;;12.28;74.53
64388;BME280;50709;52.648;4.764;2022-12-29T04:19:39;99651.38;;;11.95;74.76
64388;BME280;50709;52.648;4.764;2022-12-29T04:22:04;99626.94;;;11.97;73.60
64388;BME280;50709;52.648;4.764;2022-12-29T04:24:29;99625.91;;;12.74;73.92
64388;BME280;50709;52.648;4.764;2022-12-29T04:26:54;99621.00;;;12.62;73.47
64388;BME280;50709;52.648;4.764;2022-12-29T04:29:20;99625.97;;;12.71;74.05
64388;BME280;50709;52.648;4.764;2022-12-29T04:31:45;99625.91;;;12.74;73.73
64388;BME280;50709;52.648;4.764;2022-12-29T04:34:10;99634.53;;;12.43;71.59
64388;BME280;50709;52.648;4.764;2022-12-29T04:36:36;99635.97;;;12.57;74.30
64388;BME280;50709;52.648;4.764;2022-12-29T04:39:01;99626.97;;;12.33;73.75
64388;BME280;50709;52.648;4.764;2022-12-29T04:41:26;99642.31;;;12.47;72.60
64388;BME280;50709;52.648;4.764;2022-12-29T04:43:52;99636.19;;;12.48;73.52
64388;BME280;50709;52.648;4.764;2022-12-29T04:46:17;99631.13;;;12.04;72.19
64388;BME280;50709;52.648;4.764;2022-12-29T04:48:42;99658.00;;;12.12;73.42
64388;BME280;50709;52.648;4.764;2022-12-29T04:51:07;99659.13;;;12.38;73.49
64388;BME280;50709;52.648;4.764;2022-12-29T04:53:33;99657.19;;;12.08;71.33
64388;BME280;50709;52.648;4.764;2022-12-29T04:55:58;99659.66;;;12.51;71.30
64388;BME280;50709;52.648;4.764;2022-12-29T04:58:25;99662.00;;;12.27;74.08
64388;BME280;50709;52.648;4.764;2022-12-29T05:00:51;99654.97;;;12.98;73.69
64388;BME280;50709;52.648;4.764;2022-12-29T05:03:16;99655.94;;;12.61;70.17
64388;BME280;50709;52.648;4.764;2022-12-29T05:05:41;99666.84;;;13.11;71.47
64388;BME280;50709;52.648;4.764;2022-12-29T05:08:07;99664.28;;;13.41;70.72
64388;BME280;50709;52.648;4.764;2022-12-29T05:10:32;99676.19;;;13.22;71.82
64388;BME280;50709;52.648;4.764;2022-12-29T05:12:57;99676.22;;;13.20;70.38
64388;BME280;50709;52.648;4.764;2022-12-29T05:15:23;99672.00;;;12.82;70.72
64388;BME280;50709;52.648;4.764;2022-12-29T05:17:48;99678.38;;;11.98;70.60
64388;BME280;50709;52.648;4.764;2022-12-29T05:20:13;99683.28;;;12.11;73.31
64388;BME280;50709;52.648;4.764;2022-12-29T05:22:39;99665.44;;;12.29;72.44
64388;BME280;50709;52.648;4.764;2022-12-29T05:25:04;99659.13;;;12.00;72.74
64388;BME280;50709;52.648;4.764;2022-12-29T05:27:30;99665.06;;;12.44;71.93
64388;BME280;50709;52.648;4.764;2022-12-29T05:29:55;99671.28;;;12.39;72.83
64388;BME280;50709;52.648;4.764;2022-12-29T05:32:20;99662.78;;;13.00;74.38
64388;BME280;50709;52.648;4.764;2022-12-29T05:34:45;99665.84;;;12.48;73.84
64388;BME280;50709;52.648;4.764;2022-12-29T05:37:11;99667.59;;;12.84;72.33
64388;BME280;50709;52.648;4.764;2022-12-29T05:39:36;99683.72;;;12.67;72.15
64388;BME280;50709;52.648;4.764;2022-12-29T05:42:01;99670.66;;;12.65;71.80
64388;BME280;50709;52.648;4.764;2022-12-29T05:44:26;99698.66;;;13.30;74.19
64388;BME280;50709;52.648;4.764;2022-12-29T05:46:52;99680.91;;;12.74;73.81
64388;BME280;50709;52.648;4.764;2022-12-29T05:49:17;99706.47;;;11.88;73.13
64388;BME280;50709;52.648;4.764;2022-12-29T05:51:42;99681.50;;;12.14;71.80
64388;BME280;50709;52.648;4.764;2022-12-29T05:54:07;99671.13;;;12.09;72.81
64388;BME280;50709;52.648;4.764;2022-12-29T05:56:33;99683.38;;;12.81;74.08
64388;BME280;50709;52.648;4.764;2022-12-29T05:58:58;99674.03;;;12.70;72.40
64388;BME280;50709;52.648;4.764;2022-12-29T06:01:23;99692.66;;;12.59;72.38
64388;BME280;50709;52.648;4.764;2022-12-29T06:03:48;99692.88;;;12.85;71.79
64388;BME280;50709;52.648;4.764;2022-12-29T06:06:14;99698.91;;;12.54;73.27
64388;BME280;50709;52.648;4.764;2022-12-29T06:08:39;99702.94;;;13.02;71.89
64388;BME280;50709;52.648;4.764;2022-12-29T06:11:04;99713.63;;;12.92;69.38
64388;BME280;50709;52.648;4.764;2022-12-29T06:13:30;99708.72;;;12.80;70.96
64388;BME280;50709;52.648;4.764;2022-12-29T06:15:55;99694.81;;;14.87;65.94
64388;BME280;50709;52.648;4.764;2022-12-29T06:18:20;99691.09;;;15.20;62.80
64388;BME280;50709;52.648;4.764;2022-12-29T06:20:46;99708.06;;;15.60;66.04
64388;BME280;50709;52.648;4.764;2022-12-29T06:23:11;99710.34;;;14.68;66.67
64388;BME280;50709;52.648;4.764;2022-12-29T06:25:38;99718.00;;;14.47;63.22
64388;BME280;50709;52.648;4.764;2022-12-29T06:28:03;99718.84;;;14.20;65.22
64388;BME280;50709;52.648;4.764;2022-12-29T06:30:30;99716.69;;;15.14;62.28
64388;BME280;50709;52.648;4.764;2022-12-29T06:32:55;99717.94;;;13.92;63.42
64388;BME280;50709;52.648;4.764;2022-12-29T06:35:20;99722.47;;;15.73;63.86
64388;BME280;50709;52.648;4.764;2022-12-29T06:37:47;99732.38;;;14.36;65.27
64388;BME280;50709;52.648;4.764;2022-12-29T06:40:12;99723.94;;;15.08;66.27
64388;BME280;50709;52.648;4.764;2022-12-29T06:42:38;99715.81;;;15.14;62.64
64388;BME280;50709;52.648;4.764;2022-12-29T06:45:03;99732.09;;;14.17;69.71
64388;BME280;50709;52.648;4.764;2022-12-29T06:47:29;99719.47;;;15.60;65.05
64388;BME280;50709;52.648;4.764;2022-12-29T06:49:54;99710.06;;;13.92;63.12
64388;BME280;50709;52.648;4.764;2022-12-29T06:52:19;99718.22;;;14.11;67.53
64388;BME280;50709;52.648;4.764;2022-12-29T06:54:45;99708.97;;;13.70;69.53
64388;BME280;50709;52.648;4.764;2022-12-29T06:57:10;99708.44;;;14.17;64.05
64388;BME280;50709;52.648;4.764;2022-12-29T06:59:35;99703.84;;;13.65;69.29
64388;BME280;50709;52.648;4.764;2022-12-29T07:02:00;99709.22;;;13.27;66.57
64388;BME280;50709;52.648;4.764;2022-12-29T07:04:27;99704.94;;;13.88;64.70
64388;BME280;50709;52.648;4.764;2022-12-29T07:06:52;99721.03;;;13.44;68.97
64388;BME280;50709;52.648;4.764;2022-12-29T07:09:17;99715.06;;;13.06;67.79
64388;BME280;50709;52.648;4.764;2022-12-29T07:11:42;99711.75;;;13.32;67.68
64388;BME280;50709;52.648;4.764;2022-12-29T07:14:08;99711.06;;;12.91;66.95
64388;BME280;50709;52.648;4.764;2022-12-29T07:16:33;99711.06;;;13.25;65.24
64388;BME280;50709;52.648;4.764;2022-12-29T07:18:59;99707.00;;;13.78;68.66
64388;BME280;50709;52.648;4.764;2022-12-29T07:21:24;99722.69;;;13.79;67.69
64388;BME280;50709;52.648;4.764;2022-12-29T07:23:50;99709.84;;;13.39;68.26
64388;BME280;50709;52.648;4.764;2022-12-29T07:26:15;99716.69;;;13.10;67.03
64388;BME280;50709;52.648;4.764;2022-12-29T07:28:43;99721.69;;;13.54;68.34
64388;BME280;50709;52.648;4.764;2022-12-29T07:31:12;99709.13;;;12.27;68.56
64388;BME280;50709;52.648;4.764;2022-12-29T07:33:38;99707.78;;;13.50;70.10
64388;BME280;50709;52.648;4.764;2022-12-29T07:36:04;99721.81;;;13.15;69.22
64388;BME280;50709;52.648;4.764;2022-12-29T07:38:29;99716.03;;;14.26;63.29
64388;BME280;50709;52.648;4.764;2022-12-29T07:40:58;99709.72;;;13.43;67.31
64388;BME280;50709;52.648;4.764;2022-12-29T07:43:23;99724.56;;;13.10;66.07
64388;BME280;50709;52.648;4.764;2022-12-29T07:45:49;99730.72;;;14.03;66.50
64388;BME280;50709;52.648;4.764;2022-12-29T07:48:14;99720.78;;;13.53;64.06
64388;BME280;50709;52.648;4.764;2022-12-29T07:50:39;99722.09;;;13.04;67.02
64388;BME280;50709;52.648;4.764;2022-12-29T07:53:04;99719.13;;;13.18;65.28
64388;BME280;50709;52.648;4.764;2022-12-29T07:55:30;99727.22;;;13.08;66.76
64388;BME280;50709;52.648;4.764;2022-12-29T07:57:55;99729.84;;;13.08;67.46
64388;BME280;50709;52.648;4.764;2022-12-29T08:00:21;99730.59;;;13.46;67.19
64388;BME280;50709;52.648;4.764;2022-12-29T08:02:47;99727.81;;;13.18;66.84
64388;BME280;50709;52.648;4.764;2022-12-29T08:05:12;99729.78;;;13.44;71.48
64388;BME280;50709;52.648;4.764;2022-12-29T08:07:37;99729.81;;;12.75;68.85
64388;BME280;50709;52.648;4.764;2022-12-29T08:10:03;99729.34;;;12.58;70.70
64388;BME280;50709;52.648;4.764;2022-12-29T08:12:28;99738.91;;;12.59;68.87
64388;BME280;50709;52.648;4.764;2022-12-29T08:14:53;99768.31;;;12.72;69.06
64388;BME280;50709;52.648;4.764;2022-12-29T08:17:19;99750.94;;;13.70;68.78
64388;BME280;50709;52.648;4.764;2022-12-29T08:19:44;99737.63;;;13.46;69.28
64388;BME280;50709;52.648;4.764;2022-12-29T08:22:09;99744.28;;;13.58;67.51
64388;BME280;50709;52.648;4.764;2022-12-29T08:24:34;99750.66;;;13.15;66.71
64388;BME280;50709;52.648;4.764;2022-12-29T08:27:00;99752.41;;;12.79;69.60
64388;BME280;50709;52.648;4.764;2022-12-29T08:29:26;99757.38;;;12.90;67.58
64388;BME280;50709;52.648;4.764;2022-12-29T08:31:51;99751.22;;;13.26;67.49
64388;BME280;50709;52.648;4.764;2022-12-29T08:34:16;99751.44;;;12.84;69.59
64388;BME280;50709;52.648;4.764;2022-12-29T08:36:42;99775.78;;;12.10;72.87
64388;BME280;50709;52.648;4.764;2022-12-29T08:39:07;99771.00;;;12.69;71.81
64388;BME280;50709;52.648;4.764;2022-12-29T08:41:32;99775.47;;;13.01;71.77
64388;BME280;50709;52.648;4.764;2022-12-29T08:43:57;99768.31;;;13.42;69.68
64388;BME280;50709;52.648;4.764;2022-12-29T08:46:23;99773.44;;;13.47;68.67
64388;BME280;50709;52.648;4.764;2022-12-29T08:48:48;99771.66;;;13.13;70.15
64388;BME280;50709;52.648;4.764;2022-12-29T08:51:13;99774.59;;;13.01;71.19
64388;BME280;50709;52.648;4.764;2022-12-29T08:53:39;99781.50;;;12.69;72.21
64388;BME280;50709;52.648;4.764;2022-12-29T08:56:04;99784.00;;;13.09;71.01
64388;BME280;50709;52.648;4.764;2022-12-29T08:58:29;99781.38;;;13.09;69.66
64388;BME280;50709;52.648;4.764;2022-12-29T09:00:55;99795.78;;;12.13;72.28
64388;BME280;50709;52.648;4.764;2022-12-29T09:03:22;99799.88;;;13.39;73.78
64388;BME280;50709;52.648;4.764;2022-12-29T09:05:48;99792.84;;;13.73;69.38
64388;BME280;50709;52.648;4.764;2022-12-29T09:08:14;99813.84;;;14.34;69.48
64388;BME280;50709;52.648;4.764;2022-12-29T09:10:39;99828.75;;;14.04;68.59
64388;BME280;50709;52.648;4.764;2022-12-29T09:13:04;99821.81;;;13.68;68.56
64388;BME280;50709;52.648;4.764;2022-12-29T09:15:29;99823.19;;;14.13;68.10
64388;BME280;50709;52.648;4.764;2022-12-29T09:17:55;99828.84;;;14.59;66.65
64388;BME280;50709;52.648;4.764;2022-12-29T09:20:20;99835.41;;;13.84;68.89
64388;BME280;50709;52.648;4.764;2022-12-29T09:22:45;99838.31;;;14.06;68.02
64388;BME280;50709;52.648;4.764;2022-12-29T09:25:11;99849.50;;;14.11;69.42
64388;BME280;50709;52.648;4.764;2022-12-29T09:27:37;99854.13;;;14.35;66.97
64388;BME280;50709;52.648;4.764;2022-12-29T09:30:03;99861.19;;;12.96;72.87
64388;BME280;50709;52.648;4.764;2022-12-29T09:32:28;99863.44;;;12.74;75.94
64388;BME280;50709;52.648;4.764;2022-12-29T09:34:54;99867.56;;;12.84;77.72
64388;BME280;50709;52.648;4.764;2022-12-29T09:37:19;99882.00;;;13.04;82.09
64388;BME280;50709;52.648;4.764;2022-12-29T09:39:44;99894.63;;;12.85;80.68
64388;BME280;50709;52.648;4.764;2022-12-29T09:47:44;99904.06;;;12.93;76.13
64388;BME280;50709;52.648;4.764;2022-12-29T09:55:21;99923.50;;;12.83;76.83
64388;BME280;50709;52.648;4.764;2022-12-29T10:00:16;99930.13;;;12.59;75.35
64388;BME280;50709;52.648;4.764;2022-12-29T10:02:43;99944.31;;;12.49;72.82
64388;BME280;50709;52.648;4.764;2022-12-29T10:05:13;99931.03;;;12.58;75.01
64388;BME280;50709;52.648;4.764;2022-12-29T10:07:49;99943.06;;;13.07;72.81
64388;BME280;50709;52.648;4.764;2022-12-29T10:10:20;99945.84;;;12.59;69.89
64388;BME280;50709;52.648;4.764;2022-12-29T10:15:29;99948.44;;;13.01;71.65
64388;BME280;50709;52.648;4.764;2022-12-29T10:23:23;99966.81;;;13.01;72.97
64388;BME280;50709;52.648;4.764;2022-12-29T10:25:50;99970.66;;;12.83;70.47
64388;BME280;50709;52.648;4.764;2022-12-29T10:28:31;99966.81;;;13.00;70.48
64388;BME280;50709;52.648;4.764;2022-12-29T10:30:58;99978.81;;;13.10;69.40
64388;BME280;50709;52.648;4.764;2022-12-29T10:33:31;99985.59;;;12.79;70.53
64388;BME280;50709;52.648;4.764;2022-12-29T10:35:57;99993.59;;;13.14;71.55
64388;BME280;50709;52.648;4.764;2022-12-29T10:38:27;100002.56;;;13.04;71.05
64388;BME280;50709;52.648;4.764;2022-12-29T10:43:43;100015.09;;;13.30;70.95
64388;BME280;50709;52.648;4.764;2022-12-29T10:46:11;100008.69;;;13.03;71.98
64388;BME280;50709;52.648;4.764;2022-12-29T10:48:37;100013.41;;;13.27;71.49
64388;BME280;50709;52.648;4.764;2022-12-29T10:51:04;100018.75;;;13.23;68.95
64388;BME280;50709;52.648;4.764;2022-12-29T10:53:33;100023.69;;;13.38;67.35
64388;BME280;50709;52.648;4.764;2022-12-29T10:56:00;100029.66;;;13.83;69.42
64388;BME280;50709;52.648;4.764;2022-12-29T10:58:26;100036.22;;;13.65;70.72
64388;BME280;50709;52.648;4.764;2022-12-29T11:00:54;100039.38;;;13.77;66.93
64388;BME280;50709;52.648;4.764;2022-12-29T11:08:19;100064.22;;;14.00;65.47
64388;BME280;50709;52.648;4.764;2022-12-29T11:10:45;100064.19;;;14.02;67.49
64388;BME280;50709;52.648;4.764;2022-12-29T11:13:18;100071.94;;;14.41;65.96
64388;BME280;50709;52.648;4.764;2022-12-29T11:15:44;100073.97;;;13.95;68.89
64388;BME280;50709;52.648;4.764;2022-12-29T11:18:23;100068.34;;;14.10;68.21
64388;BME280;50709;52.648;4.764;2022-12-29T11:20:50;100072.09;;;14.00;66.24
64388;BME280;50709;52.648;4.764;2022-12-29T11:23:23;100066.94;;;14.32;68.05
64388;BME280;50709;52.648;4.764;2022-12-29T11:28:33;100084.88;;;13.78;67.14
64388;BME280;50709;52.648;4.764;2022-12-29T11:30:59;100089.72;;;13.95;63.65
64388;BME280;50709;52.648;4.764;2022-12-29T11:33:26;100077.69;;;13.86;61.13
64388;BME280;50709;52.648;4.764;2022-12-29T11:35:56;100096.19;;;13.80;66.07
64388;BME280;50709;52.648;4.764;2022-12-29T11:38:24;100095.34;;;13.79;65.43
64388;BME280;50709;52.648;4.764;2022-12-29T11:40:50;100102.53;;;14.07;64.01
64388;BME280;50709;52.648;4.764;2022-12-29T11:43:29;100101.78;;;14.02;66.86
64388;BME280;50709;52.648;4.764;2022-12-29T11:45:55;100105.72;;;13.84;65.82
64388;BME280;50709;52.648;4.764;2022-12-29T11:48:21;100110.19;;;14.17;63.99
64388;BME280;50709;52.648;4.764;2022-12-29T11:50:51;100108.72;;;16.77;58.14
64388;BME280;50709;52.648;4.764;2022-12-29T11:53:19;100116.53;;;19.24;55.44
64388;BME280;50709;52.648;4.764;2022-12-29T11:55:56;100116.13;;;19.52;53.42
64388;BME280;50709;52.648;4.764;2022-12-29T11:58:29;100107.84;;;17.73;52.60
64388;BME280;50709;52.648;4.764;2022-12-29T12:00:55;100103.22;;;17.78;55.66
64388;BME280;50709;52.648;4.764;2022-12-29T12:03:22;100120.00;;;18.85;52.50
64388;BME280;50709;52.648;4.764;2022-12-29T12:05:58;100131.22;;;18.48;54.58
64388;BME280;50709;52.648;4.764;2022-12-29T12:08:33;100128.06;;;19.42;50.98
64388;BME280;50709;52.648;4.764;2022-12-29T12:13:33;100137.78;;;17.72;52.87
64388;BME280;50709;52.648;4.764;2022-12-29T12:16:04;100125.31;;;18.64;53.22
64388;BME280;50709;52.648;4.764;2022-12-29T12:18:37;100136.25;;;18.75;47.80
64388;BME280;50709;52.648;4.764;2022-12-29T12:21:05;100129.59;;;18.66;53.04
64388;BME280;50709;52.648;4.764;2022-12-29T12:26:18;100132.69;;;18.76;53.66
64388;BME280;50709;52.648;4.764;2022-12-29T12:33:58;100136.84;;;19.23;53.20
64388;BME280;50709;52.648;4.764;2022-12-29T12:56:56;100173.53;;;18.48;53.95
64388;BME280;50709;52.648;4.764;2022-12-29T13:07:19;100162.56;;;18.58;57.78
64388;BME280;50709;52.648;4.764;2022-12-29T13:19:54;100189.31;;;19.34;55.30
64388;BME280;50709;52.648;4.764;2022-12-29T13:22:31;100194.69;;;18.91;56.64
64388;BME280;50709;52.648;4.764;2022-12-29T13:29:58;100194.13;;;17.72;56.23
64388;BME280;50709;52.648;4.764;2022-12-29T13:34:56;100197.75;;;17.70;50.68
64388;BME280;50709;52.648;4.764;2022-12-29T13:37:27;100199.81;;;17.61;52.02
64388;BME280;50709;52.648;4.764;2022-12-29T13:39:55;100205.59;;;17.95;57.77
64388;BME280;50709;52.648;4.764;2022-12-29T13:42:22;100216.31;;;16.65;62.53
64388;BME280;50709;52.648;4.764;2022-12-29T13:44:57;100207.97;;;17.30;55.62
64388;BME280;50709;52.648;4.764;2022-12-29T13:49:49;100195.97;;;16.14;56.99
64388;BME280;50709;52.648;4.764;2022-12-29T13:52:21;100195.53;;;16.01;61.55
64388;BME280;50709;52.648;4.764;2022-12-29T13:55:08;100201.00;;;17.29;59.65
64388;BME280;50709;52.648;4.764;2022-12-29T14:00:15;100208.19;;;16.98;59.85
64388;BME280;50709;52.648;4.764;2022-12-29T14:07:46;100203.13;;;15.82;61.63
64388;BME280;50709;52.648;4.764;2022-12-29T14:13:18;100214.75;;;15.10;59.25
64388;BME280;50709;52.648;4.764;2022-12-29T14:15:43;100205.09;;;15.72;58.80
64388;BME280;50709;52.648;4.764;2022-12-29T14:20:37;100207.44;;;14.87;58.40
64388;BME280;50709;52.648;4.764;2022-12-29T14:28:30;100190.47;;;13.49;64.82
64388;BME280;50709;52.648;4.764;2022-12-29T14:30:57;100196.16;;;13.69;65.80
64388;BME280;50709;52.648;4.764;2022-12-29T14:33:24;100206.75;;;13.18;66.94
64388;BME280;50709;52.648;4.764;2022-12-29T14:35:51;100200.78;;;14.74;65.28
64388;BME280;50709;52.648;4.764;2022-12-29T14:38:24;100205.38;;;14.28;67.32
64388;BME280;50709;52.648;4.764;2022-12-29T14:40:50;100207.84;;;13.95;64.68
64388;BME280;50709;52.648;4.764;2022-12-29T14:43:26;100217.91;;;14.53;66.22
64388;BME280;50709;52.648;4.764;2022-12-29T14:45:53;100214.88;;;13.94;67.34
64388;BME280;50709;52.648;4.764;2022-12-29T14:48:38;100220.50;;;14.54;64.38
64388;BME280;50709;52.648;4.764;2022-12-29T14:51:20;100213.97;;;15.38;63.21
64388;BME280;50709;52.648;4.764;2022-12-29T14:53:50;100221.16;;;14.64;63.59
64388;BME280;50709;52.648;4.764;2022-12-29T14:56:19;100223.69;;;15.36;64.85
64388;BME280;50709;52.648;4.764;2022-12-29T14:58:55;100231.13;;;15.20;61.95
64388;BME280;50709;52.648;4.764;2022-12-29T15:01:26;100236.41;;;15.20;64.38
64388;BME280;50709;52.648;4.764;2022-12-29T15:03:54;100245.69;;;13.85;64.44
64388;BME280;50709;52.648;4.764;2022-12-29T15:06:22;100232.25;;;13.58;65.83
64388;BME280;50709;52.648;4.764;2022-12-29T15:11:18;100235.19;;;14.25;65.96
64388;BME280;50709;52.648;4.764;2022-12-29T15:13:44;100238.63;;;13.44;67.65
64388;BME280;50709;52.648;4.764;2022-12-29T15:18:54;100252.00;;;14.17;65.03
64388;BME280;50709;52.648;4.764;2022-12-29T15:21:22;100246.59;;;13.84;66.21
64388;BME280;50709;52.648;4.764;2022-12-29T15:23:49;100240.97;;;14.40;66.75
64388;BME280;50709;52.648;4.764;2022-12-29T15:26:14;100246.44;;;14.30;64.07
64388;BME280;50709;52.648;4.764;2022-12-29T15:28:46;100248.72;;;14.07;63.81